Terminal Aerodrome Forecast
Issued by NWS

Home | Current Version | Previous Version | Text Only | Print | Product List | Glossary On
Versions: 1 2 3 4 5 6 7 8 9 10 11 12 13
132
FTUS45 KLKN 221123
TAFWMC
TAF
KWMC 221123Z 2212/2312 VRB04KT P6SM VCSH SCT060 BKN120
      TEMPO 2222/2302 34008KT 5SM -TSRA SCT045CB OVC070
     FM230200 23008KT P6SM VCSH OVC070
      TEMPO 2302/2306 -SHRA BKN040=

USA.gov is the U.S. government's official web portal to all federal, state and local government web resources and services.